Terminal Aerodrome Forecast
Issued by NWS

Home | Current Version | Previous Version | Text Only | Print | Product List | Glossary On
Versions: 1 2 3 4 5 6 7 8 9 10 11 12 13 14 15 16 17
000
FTPA31 PHFO 231734
TAFHTO
TAF
PHTO 231734Z 2318/2418 26006KT P6SM BKN035 BKN060
     FM232000 02012KT P6SM BKN035 BKN060
     FM240400 35008KT P6SM VCSH BKN025 OVC040
     FM241200 29010KT P6SM VCSH BKN025 OVC040=

USA.gov is the U.S. government's official web portal to all federal, state and local government web resources and services.